sensor_id;sensor_type;location;lat;lon;timestamp;pressure;altitude;pressure_sealevel;temperature;humidity
45523;BME280;31254;51.680;5.394;2023-02-23T00:02:01;101305.78;;;9.34;91.73
45523;BME280;31254;51.680;5.394;2023-02-23T00:04:29;101294.66;;;9.26;91.89
45523;BME280;31254;51.680;5.394;2023-02-23T00:06:56;101320.88;;;9.38;92.27
45523;BME280;31254;51.680;5.394;2023-02-23T00:09:23;101308.63;;;9.32;92.11
45523;BME280;31254;51.680;5.394;2023-02-23T00:12:02;101305.78;;;9.34;91.95
45523;BME280;31254;51.680;5.394;2023-02-23T00:14:34;101311.34;;;9.32;92.12
45523;BME280;31254;51.680;5.394;2023-02-23T00:17:03;101297.78;;;9.21;92.01
45523;BME280;31254;51.680;5.394;2023-02-23T00:19:35;101312.75;;;9.27;92.41
45523;BME280;31254;51.680;5.394;2023-02-23T00:22:03;101311.25;;;9.23;92.35
45523;BME280;31254;51.680;5.394;2023-02-23T00:24:29;101292.38;;;9.10;92.36
45523;BME280;31254;51.680;5.394;2023-02-23T00:26:56;101309.69;;;9.20;92.09
45523;BME280;31254;51.680;5.394;2023-02-23T00:29:25;101298.59;;;9.12;92.51
45523;BME280;31254;51.680;5.394;2023-02-23T00:31:55;101299.44;;;9.12;91.89
45523;BME280;31254;51.680;5.394;2023-02-23T00:34:21;101309.81;;;9.19;92.30
45523;BME280;31254;51.680;5.394;2023-02-23T00:36:53;101301.91;;;9.15;92.46
45523;BME280;31254;51.680;5.394;2023-02-23T00:39:21;101299.91;;;9.18;92.24
45523;BME280;31254;51.680;5.394;2023-02-23T00:41:53;101297.19;;;9.18;92.71
45523;BME280;31254;51.680;5.394;2023-02-23T00:44:22;101294.72;;;9.14;92.10
45523;BME280;31254;51.680;5.394;2023-02-23T00:46:49;101288.34;;;9.04;92.64
45523;BME280;31254;51.680;5.394;2023-02-23T00:49:20;101297.69;;;9.11;92.27
45523;BME280;31254;51.680;5.394;2023-02-23T00:51:48;101305.13;;;9.09;92.71
45523;BME280;31254;51.680;5.394;2023-02-23T00:54:19;101306.00;;;9.10;92.46
45523;BME280;31254;51.680;5.394;2023-02-23T00:56:47;101304.16;;;9.10;92.43
45523;BME280;31254;51.680;5.394;2023-02-23T00:59:14;101239.94;;;8.75;92.45
45523;BME280;31254;51.680;5.394;2023-02-23T01:01:43;101306.00;;;9.10;92.56
45523;BME280;31254;51.680;5.394;2023-02-23T01:04:13;101294.88;;;9.02;93.00
45523;BME280;31254;51.680;5.394;2023-02-23T01:06:40;101300.69;;;9.08;92.86
45523;BME280;31254;51.680;5.394;2023-02-23T01:09:13;101292.03;;;9.03;92.71
45523;BME280;31254;51.680;5.394;2023-02-23T01:11:40;101286.13;;;8.98;92.87
45523;BME280;31254;51.680;5.394;2023-02-23T01:14:08;101320.75;;;9.07;92.56
45523;BME280;31254;51.680;5.394;2023-02-23T01:16:35;101310.22;;;9.03;92.75
45523;BME280;31254;51.680;5.394;2023-02-23T01:19:04;101293.69;;;8.94;92.85
45523;BME280;31254;51.680;5.394;2023-02-23T01:21:37;101303.66;;;9.05;93.06
45523;BME280;31254;51.680;5.394;2023-02-23T01:24:07;101289.22;;;8.93;92.75
45523;BME280;31254;51.680;5.394;2023-02-23T01:26:42;101308.38;;;9.03;93.12
45523;BME280;31254;51.680;5.394;2023-02-23T01:29:14;101274.69;;;8.83;92.79
45523;BME280;31254;51.680;5.394;2023-02-23T01:31:46;101197.38;;;8.31;93.06
45523;BME280;31254;51.680;5.394;2023-02-23T01:34:13;101312.34;;;8.99;92.60
45523;BME280;31254;51.680;5.394;2023-02-23T01:36:43;101279.53;;;8.80;93.12
45523;BME280;31254;51.680;5.394;2023-02-23T01:39:13;101308.88;;;8.97;93.32
45523;BME280;31254;51.680;5.394;2023-02-23T01:41:41;101229.50;;;8.48;93.15
45523;BME280;31254;51.680;5.394;2023-02-23T01:46:57;101312.88;;;8.93;93.08
45523;BME280;31254;51.680;5.394;2023-02-23T01:49:27;101242.97;;;8.50;92.90
45523;BME280;31254;51.680;5.394;2023-02-23T01:52:05;101320.13;;;8.92;92.86
45523;BME280;31254;51.680;5.394;2023-02-23T01:54:36;101313.13;;;8.90;93.56
45523;BME280;31254;51.680;5.394;2023-02-23T01:57:05;101316.56;;;8.92;93.24
45523;BME280;31254;51.680;5.394;2023-02-23T01:59:40;101329.19;;;8.93;93.44
45523;BME280;31254;51.680;5.394;2023-02-23T02:02:08;101326.59;;;8.91;93.18
45523;BME280;31254;51.680;5.394;2023-02-23T02:04:37;101309.03;;;8.84;93.47
45523;BME280;31254;51.680;5.394;2023-02-23T02:07:25;101327.19;;;8.95;93.65
45523;BME280;31254;51.680;5.394;2023-02-23T02:09:57;101328.06;;;8.95;93.74
45523;BME280;31254;51.680;5.394;2023-02-23T02:12:55;101319.03;;;8.95;93.83
45523;BME280;31254;51.680;5.394;2023-02-23T02:15:24;101321.75;;;8.95;93.86
45523;BME280;31254;51.680;5.394;2023-02-23T02:32:36;101322.50;;;8.86;93.88
45523;BME280;31254;51.680;5.394;2023-02-23T02:35:33;101326.25;;;8.85;94.12
45523;BME280;31254;51.680;5.394;2023-02-23T02:48:47;101327.34;;;8.82;94.11
45523;BME280;31254;51.680;5.394;2023-02-23T02:56:35;101319.56;;;8.77;94.69
45523;BME280;31254;51.680;5.394;2023-02-23T02:59:26;101315.88;;;8.78;94.39
45523;BME280;31254;51.680;5.394;2023-02-23T03:02:17;101312.41;;;8.76;94.02
45523;BME280;31254;51.680;5.394;2023-02-23T03:05:25;101301.19;;;8.70;94.26
45523;BME280;31254;51.680;5.394;2023-02-23T03:11:35;101308.44;;;8.69;94.49
45523;BME280;31254;51.680;5.394;2023-02-23T03:17:42;101311.19;;;8.69;94.23
45523;BME280;31254;51.680;5.394;2023-02-23T03:26:10;101321.31;;;8.67;94.56
45523;BME280;31254;51.680;5.394;2023-02-23T03:32:22;101332.31;;;8.66;94.65
45523;BME280;31254;51.680;5.394;2023-02-23T03:36:07;101335.16;;;8.64;94.81
45523;BME280;31254;51.680;5.394;2023-02-23T03:39:10;101327.75;;;8.55;94.83
45523;BME280;31254;51.680;5.394;2023-02-23T03:41:54;101337.88;;;8.64;94.72
45523;BME280;31254;51.680;5.394;2023-02-23T03:44:44;101341.72;;;8.62;95.39
45523;BME280;31254;51.680;5.394;2023-02-23T03:47:33;101337.16;;;8.62;95.32
45523;BME280;31254;51.680;5.394;2023-02-23T03:50:32;101325.28;;;8.52;95.12
45523;BME280;31254;51.680;5.394;2023-02-23T03:53:24;101303.63;;;8.39;95.62
45523;BME280;31254;51.680;5.394;2023-02-23T03:56:13;101324.78;;;8.47;95.37
45523;BME280;31254;51.680;5.394;2023-02-23T03:59:02;101325.53;;;8.49;95.25
45523;BME280;31254;51.680;5.394;2023-02-23T04:01:50;101306.63;;;8.36;95.36
45523;BME280;31254;51.680;5.394;2023-02-23T04:04:41;101327.41;;;8.48;95.64
45523;BME280;31254;51.680;5.394;2023-02-23T04:07:32;101343.34;;;8.53;95.14
45523;BME280;31254;51.680;5.394;2023-02-23T04:10:19;101348.66;;;8.54;95.63
45523;BME280;31254;51.680;5.394;2023-02-23T04:13:16;101354.94;;;8.55;95.56
45523;BME280;31254;51.680;5.394;2023-02-23T04:15:54;101351.50;;;8.53;95.60
45523;BME280;31254;51.680;5.394;2023-02-23T04:18:28;101293.16;;;8.12;95.57
45523;BME280;31254;51.680;5.394;2023-02-23T04:20:56;101355.59;;;8.47;95.67
45523;BME280;31254;51.680;5.394;2023-02-23T04:23:24;101352.00;;;8.47;95.71
45523;BME280;31254;51.680;5.394;2023-02-23T04:25:51;101360.88;;;8.49;95.74
45523;BME280;31254;51.680;5.394;2023-02-23T04:28:19;101356.44;;;8.48;96.08
45523;BME280;31254;51.680;5.394;2023-02-23T04:30:46;101364.59;;;8.48;95.96
45523;BME280;31254;51.680;5.394;2023-02-23T04:33:15;101348.88;;;8.40;96.07
45523;BME280;31254;51.680;5.394;2023-02-23T04:35:42;101330.97;;;8.26;96.21
45523;BME280;31254;51.680;5.394;2023-02-23T04:38:09;101358.56;;;8.44;96.29
45523;BME280;31254;51.680;5.394;2023-02-23T04:40:35;101368.53;;;8.44;96.60
45523;BME280;31254;51.680;5.394;2023-02-23T04:43:05;101364.22;;;8.41;96.39
45523;BME280;31254;51.680;5.394;2023-02-23T04:45:34;101373.00;;;8.45;96.39
45523;BME280;31254;51.680;5.394;2023-02-23T04:48:00;101372.16;;;8.44;96.89
45523;BME280;31254;51.680;5.394;2023-02-23T04:50:27;101287.47;;;7.92;96.66
45523;BME280;31254;51.680;5.394;2023-02-23T04:52:58;101347.28;;;8.26;96.42
45523;BME280;31254;51.680;5.394;2023-02-23T04:55:25;101362.34;;;8.41;96.78
45523;BME280;31254;51.680;5.394;2023-02-23T04:57:56;101363.00;;;8.45;97.10
45523;BME280;31254;51.680;5.394;2023-02-23T05:00:25;101342.09;;;8.34;97.00
45523;BME280;31254;51.680;5.394;2023-02-23T05:02:56;101370.63;;;8.40;96.83
45523;BME280;31254;51.680;5.394;2023-02-23T05:05:25;101374.97;;;8.42;96.76
45523;BME280;31254;51.680;5.394;2023-02-23T05:07:52;101259.88;;;7.74;97.19
45523;BME280;31254;51.680;5.394;2023-02-23T05:10:20;101371.28;;;8.44;96.95
45523;BME280;31254;51.680;5.394;2023-02-23T05:12:47;101366.16;;;8.39;97.04
45523;BME280;31254;51.680;5.394;2023-02-23T05:15:14;101373.13;;;8.43;96.97
45523;BME280;31254;51.680;5.394;2023-02-23T05:17:41;101376.72;;;8.44;97.35
45523;BME280;31254;51.680;5.394;2023-02-23T05:20:09;101307.84;;;7.98;97.40
45523;BME280;31254;51.680;5.394;2023-02-23T05:22:36;101378.66;;;8.41;97.69
45523;BME280;31254;51.680;5.394;2023-02-23T05:25:03;101329.09;;;8.15;97.52
45523;BME280;31254;51.680;5.394;2023-02-23T05:27:30;101377.47;;;8.46;97.46
45523;BME280;31254;51.680;5.394;2023-02-23T05:29:58;101382.91;;;8.46;97.76
45523;BME280;31254;51.680;5.394;2023-02-23T05:32:24;101358.16;;;8.37;98.00
45523;BME280;31254;51.680;5.394;2023-02-23T05:34:55;101317.09;;;8.06;98.11
45523;BME280;31254;51.680;5.394;2023-02-23T05:37:23;101384.88;;;8.44;97.70
45523;BME280;31254;51.680;5.394;2023-02-23T05:39:52;101381.38;;;8.41;98.19
45523;BME280;31254;51.680;5.394;2023-02-23T05:42:19;101360.88;;;8.26;97.73
45523;BME280;31254;51.680;5.394;2023-02-23T05:44:48;101365.06;;;8.30;97.96
45523;BME280;31254;51.680;5.394;2023-02-23T05:47:14;101388.47;;;8.44;97.96
45523;BME280;31254;51.680;5.394;2023-02-23T05:49:41;101389.44;;;8.43;97.96
45523;BME280;31254;51.680;5.394;2023-02-23T05:52:10;101395.63;;;8.45;98.24
45523;BME280;31254;51.680;5.394;2023-02-23T05:54:37;101356.03;;;8.18;98.11
45523;BME280;31254;51.680;5.394;2023-02-23T05:57:04;101404.78;;;8.44;97.98
45523;BME280;31254;51.680;5.394;2023-02-23T05:59:33;101394.75;;;8.45;98.55
45523;BME280;31254;51.680;5.394;2023-02-23T06:02:02;101400.19;;;8.45;98.15
45523;BME280;31254;51.680;5.394;2023-02-23T06:04:31;101392.00;;;8.33;98.54
45523;BME280;31254;51.680;5.394;2023-02-23T06:06:58;101406.69;;;8.42;98.42
45523;BME280;31254;51.680;5.394;2023-02-23T06:09:25;101401.13;;;8.32;98.31
45523;BME280;31254;51.680;5.394;2023-02-23T06:11:52;101388.06;;;8.26;98.17
45523;BME280;31254;51.680;5.394;2023-02-23T06:14:19;101388.16;;;8.24;98.07
45523;BME280;31254;51.680;5.394;2023-02-23T06:16:50;101410.56;;;8.39;97.90
45523;BME280;31254;51.680;5.394;2023-02-23T06:19:19;101408.69;;;8.40;97.98
45523;BME280;31254;51.680;5.394;2023-02-23T06:21:46;101421.44;;;8.39;98.43
45523;BME280;31254;51.680;5.394;2023-02-23T06:24:13;101424.25;;;8.38;98.15
45523;BME280;31254;51.680;5.394;2023-02-23T06:26:42;101406.31;;;8.24;98.27
45523;BME280;31254;51.680;5.394;2023-02-23T06:29:10;101344.00;;;7.87;97.78
45523;BME280;31254;51.680;5.394;2023-02-23T06:31:37;101399.41;;;8.20;98.28
45523;BME280;31254;51.680;5.394;2023-02-23T06:34:04;101399.53;;;8.18;98.35
45523;BME280;31254;51.680;5.394;2023-02-23T06:36:31;101428.31;;;8.32;98.48
45523;BME280;31254;51.680;5.394;2023-02-23T06:38:58;101419.78;;;8.26;98.46
45523;BME280;31254;51.680;5.394;2023-02-23T06:41:25;101437.97;;;8.36;98.47
45523;BME280;31254;51.680;5.394;2023-02-23T06:43:52;101413.63;;;8.23;98.70
45523;BME280;31254;51.680;5.394;2023-02-23T06:46:19;101432.66;;;8.35;98.94
45523;BME280;31254;51.680;5.394;2023-02-23T06:48:48;101425.84;;;8.29;98.61
45523;BME280;31254;51.680;5.394;2023-02-23T06:51:17;101428.06;;;8.35;98.57
45523;BME280;31254;51.680;5.394;2023-02-23T06:53:44;101446.88;;;8.38;98.80
45523;BME280;31254;51.680;5.394;2023-02-23T06:56:13;101430.31;;;8.30;98.75
45523;BME280;31254;51.680;5.394;2023-02-23T06:58:42;101448.72;;;8.38;98.64
45523;BME280;31254;51.680;5.394;2023-02-23T07:01:11;101442.44;;;8.37;98.63
45523;BME280;31254;51.680;5.394;2023-02-23T07:03:38;101442.69;;;8.34;98.92
45523;BME280;31254;51.680;5.394;2023-02-23T07:06:07;101430.53;;;8.27;99.25
45523;BME280;31254;51.680;5.394;2023-02-23T07:08:36;101457.88;;;8.37;98.73
45523;BME280;31254;51.680;5.394;2023-02-23T07:11:08;101454.41;;;8.35;99.06
45523;BME280;31254;51.680;5.394;2023-02-23T07:13:35;101457.25;;;8.33;98.92
45523;BME280;31254;51.680;5.394;2023-02-23T07:16:02;101459.72;;;8.36;98.64
45523;BME280;31254;51.680;5.394;2023-02-23T07:18:29;101460.94;;;8.32;98.66
45523;BME280;31254;51.680;5.394;2023-02-23T07:20:56;101452.28;;;8.27;99.00
45523;BME280;31254;51.680;5.394;2023-02-23T07:23:23;101469.47;;;8.39;98.83
45523;BME280;31254;51.680;5.394;2023-02-23T07:25:50;101475.69;;;8.41;98.78
45523;BME280;31254;51.680;5.394;2023-02-23T07:28:17;101453.91;;;8.30;99.07
45523;BME280;31254;51.680;5.394;2023-02-23T07:30:47;101487.81;;;8.48;98.89
45523;BME280;31254;51.680;5.394;2023-02-23T07:33:16;101473.81;;;8.41;98.69
45523;BME280;31254;51.680;5.394;2023-02-23T07:35:42;101484.00;;;8.51;98.87
45523;BME280;31254;51.680;5.394;2023-02-23T07:38:10;101485.22;;;8.47;98.85
45523;BME280;31254;51.680;5.394;2023-02-23T07:40:38;101491.94;;;8.54;98.35
45523;BME280;31254;51.680;5.394;2023-02-23T07:43:06;101499.97;;;8.55;98.57
45523;BME280;31254;51.680;5.394;2023-02-23T07:45:33;101485.84;;;8.50;98.50
45523;BME280;31254;51.680;5.394;2023-02-23T07:48:02;101505.53;;;8.54;98.48
45523;BME280;31254;51.680;5.394;2023-02-23T07:50:31;101513.19;;;8.60;98.08
45523;BME280;31254;51.680;5.394;2023-02-23T07:53:00;101510.22;;;8.63;98.21
45523;BME280;31254;51.680;5.394;2023-02-23T07:55:28;101505.56;;;8.65;97.94
45523;BME280;31254;51.680;5.394;2023-02-23T07:57:58;101505.66;;;8.64;98.30
45523;BME280;31254;51.680;5.394;2023-02-23T08:00:25;101527.44;;;8.75;97.75
45523;BME280;31254;51.680;5.394;2023-02-23T08:02:54;101520.50;;;8.71;98.04
45523;BME280;31254;51.680;5.394;2023-02-23T08:05:23;101530.78;;;8.78;97.87
45523;BME280;31254;51.680;5.394;2023-02-23T08:07:54;101513.09;;;8.73;97.34
45523;BME280;31254;51.680;5.394;2023-02-23T08:10:21;101514.94;;;8.72;97.26
45523;BME280;31254;51.680;5.394;2023-02-23T08:12:48;101529.53;;;8.83;97.89
45523;BME280;31254;51.680;5.394;2023-02-23T08:15:15;101544.91;;;8.95;97.63
45523;BME280;31254;51.680;5.394;2023-02-23T08:17:41;101546.66;;;8.96;97.42
45523;BME280;31254;51.680;5.394;2023-02-23T08:20:09;101519.78;;;8.80;97.30
45523;BME280;31254;51.680;5.394;2023-02-23T08:22:36;101515.94;;;8.83;97.42
45523;BME280;31254;51.680;5.394;2023-02-23T08:25:15;101550.22;;;8.96;97.55
45523;BME280;31254;51.680;5.394;2023-02-23T08:27:41;101554.56;;;8.99;97.35
45523;BME280;31254;51.680;5.394;2023-02-23T08:30:12;101531.91;;;8.87;97.27
45523;BME280;31254;51.680;5.394;2023-02-23T08:32:40;101554.56;;;8.99;97.24
45523;BME280;31254;51.680;5.394;2023-02-23T08:35:08;101548.34;;;8.97;97.89
45523;BME280;31254;51.680;5.394;2023-02-23T08:37:35;101555.06;;;9.04;97.21
45523;BME280;31254;51.680;5.394;2023-02-23T08:40:02;101530.56;;;8.93;97.52
45523;BME280;31254;51.680;5.394;2023-02-23T08:42:31;101541.94;;;8.98;97.15
45523;BME280;31254;51.680;5.394;2023-02-23T08:44:58;101556.91;;;9.15;97.02
45523;BME280;31254;51.680;5.394;2023-02-23T08:47:26;101507.03;;;8.92;97.07
45523;BME280;31254;51.680;5.394;2023-02-23T08:49:53;101566.81;;;9.27;96.95
45523;BME280;31254;51.680;5.394;2023-02-23T08:52:20;101560.16;;;9.31;96.94
45523;BME280;31254;51.680;5.394;2023-02-23T08:54:49;101559.13;;;9.32;96.81
45523;BME280;31254;51.680;5.394;2023-02-23T08:57:16;101570.38;;;9.39;96.85
45523;BME280;31254;51.680;5.394;2023-02-23T08:59:45;101569.53;;;9.39;96.58
45523;BME280;31254;51.680;5.394;2023-02-23T09:02:13;101547.13;;;9.35;96.40
45523;BME280;31254;51.680;5.394;2023-02-23T09:04:40;101567.91;;;9.47;95.99
45523;BME280;31254;51.680;5.394;2023-02-23T09:07:14;101578.78;;;9.47;96.19
45523;BME280;31254;51.680;5.394;2023-02-23T09:09:44;101584.25;;;9.47;95.73
45523;BME280;31254;51.680;5.394;2023-02-23T09:12:14;101581.66;;;9.46;95.93
45523;BME280;31254;51.680;5.394;2023-02-23T09:14:40;101586.97;;;9.47;95.70
45523;BME280;31254;51.680;5.394;2023-02-23T09:17:07;101599.72;;;9.47;95.90
45523;BME280;31254;51.680;5.394;2023-02-23T09:19:34;101594.66;;;9.42;95.96
45523;BME280;31254;51.680;5.394;2023-02-23T09:22:00;101601.00;;;9.43;96.01
45523;BME280;31254;51.680;5.394;2023-02-23T09:24:27;101588.09;;;9.33;96.08
45523;BME280;31254;51.680;5.394;2023-02-23T09:26:59;101607.53;;;9.40;96.02
45523;BME280;31254;51.680;5.394;2023-02-23T09:29:26;101603.31;;;9.36;96.26
45523;BME280;31254;51.680;5.394;2023-02-23T09:31:55;101576.22;;;9.23;96.28
45523;BME280;31254;51.680;5.394;2023-02-23T09:34:23;101603.47;;;9.35;95.91
45523;BME280;31254;51.680;5.394;2023-02-23T09:36:50;101607.78;;;9.37;95.86
45523;BME280;31254;51.680;5.394;2023-02-23T09:39:17;101588.22;;;9.21;95.86
45523;BME280;31254;51.680;5.394;2023-02-23T09:42:09;101606.91;;;9.37;95.72
45523;BME280;31254;51.680;5.394;2023-02-23T09:50:02;101609.88;;;9.45;95.32
45523;BME280;31254;51.680;5.394;2023-02-23T09:52:43;101620.91;;;9.55;95.34
45523;BME280;31254;51.680;5.394;2023-02-23T09:55:13;101625.75;;;9.62;95.02
45523;BME280;31254;51.680;5.394;2023-02-23T09:57:44;101621.75;;;9.66;94.95
45523;BME280;31254;51.680;5.394;2023-02-23T10:00:22;101596.88;;;9.60;95.18
45523;BME280;31254;51.680;5.394;2023-02-23T10:03:16;101619.16;;;9.76;94.85
45523;BME280;31254;51.680;5.394;2023-02-23T10:05:47;101546.88;;;9.38;94.65
45523;BME280;31254;51.680;5.394;2023-02-23T10:08:19;101618.16;;;9.88;94.76
45523;BME280;31254;51.680;5.394;2023-02-23T10:11:01;101550.56;;;9.60;94.30
45523;BME280;31254;51.680;5.394;2023-02-23T10:16:16;101617.09;;;10.12;94.10
45523;BME280;31254;51.680;5.394;2023-02-23T10:19:05;101615.81;;;10.28;93.47
45523;BME280;31254;51.680;5.394;2023-02-23T10:21:45;101618.53;;;10.39;92.97
45523;BME280;31254;51.680;5.394;2023-02-23T10:25:05;101616.66;;;10.39;93.10
45523;BME280;31254;51.680;5.394;2023-02-23T10:27:17;101608.00;;;10.34;92.98
45523;BME280;31254;51.680;5.394;2023-02-23T10:29:53;101608.59;;;10.27;92.86
45523;BME280;31254;51.680;5.394;2023-02-23T10:32:39;101622.16;;;10.17;93.35
45523;BME280;31254;51.680;5.394;2023-02-23T10:35:14;101624.38;;;10.23;93.39
45523;BME280;31254;51.680;5.394;2023-02-23T10:37:47;101614.84;;;10.17;93.25
45523;BME280;31254;51.680;5.394;2023-02-23T10:40:17;101605.81;;;10.05;93.02
45523;BME280;31254;51.680;5.394;2023-02-23T10:42:46;101638.63;;;10.15;93.21
45523;BME280;31254;51.680;5.394;2023-02-23T10:45:15;101629.84;;;10.12;93.06
45523;BME280;31254;51.680;5.394;2023-02-23T10:48:07;101627.72;;;10.15;93.30
45523;BME280;31254;51.680;5.394;2023-02-23T10:50:38;101615.25;;;10.13;93.49
45523;BME280;31254;51.680;5.394;2023-02-23T10:53:23;101544.63;;;9.66;93.26
45523;BME280;31254;51.680;5.394;2023-02-23T10:56:11;101639.53;;;10.16;93.62
45523;BME280;31254;51.680;5.394;2023-02-23T10:58:52;101638.50;;;10.17;93.18
45523;BME280;31254;51.680;5.394;2023-02-23T11:01:36;101646.44;;;10.20;93.46
45523;BME280;31254;51.680;5.394;2023-02-23T11:04:31;101589.88;;;9.89;92.88
45523;BME280;31254;51.680;5.394;2023-02-23T11:07:15;101639.50;;;10.27;92.75
45523;BME280;31254;51.680;5.394;2023-02-23T11:09:43;101640.72;;;10.34;92.72
45523;BME280;31254;51.680;5.394;2023-02-23T11:12:24;101634.38;;;10.45;92.29
45523;BME280;31254;51.680;5.394;2023-02-23T11:14:57;101597.44;;;10.30;92.07
45523;BME280;31254;51.680;5.394;2023-02-23T11:17:32;101635.91;;;10.59;91.66
45523;BME280;31254;51.680;5.394;2023-02-23T11:22:45;101623.03;;;10.82;90.71
45523;BME280;31254;51.680;5.394;2023-02-23T11:25:28;101609.53;;;10.81;90.78
45523;BME280;31254;51.680;5.394;2023-02-23T11:27:56;101614.72;;;10.84;90.48
45523;BME280;31254;51.680;5.394;2023-02-23T11:30:33;101615.59;;;10.84;90.15
45523;BME280;31254;51.680;5.394;2023-02-23T11:33:04;101621.84;;;10.96;89.98
45523;BME280;31254;51.680;5.394;2023-02-23T11:35:40;101581.97;;;10.84;89.65
45523;BME280;31254;51.680;5.394;2023-02-23T11:38:19;101620.78;;;11.08;89.71
45523;BME280;31254;51.680;5.394;2023-02-23T11:41:04;101634.22;;;11.00;89.70
45523;BME280;31254;51.680;5.394;2023-02-23T11:43:36;101592.00;;;10.83;89.57
45523;BME280;31254;51.680;5.394;2023-02-23T11:46:03;101616.63;;;10.93;89.58
45523;BME280;31254;51.680;5.394;2023-02-23T11:50:59;101615.44;;;10.86;90.01
45523;BME280;31254;51.680;5.394;2023-02-23T11:53:43;101608.66;;;10.80;90.02
45523;BME280;31254;51.680;5.394;2023-02-23T11:56:18;101626.97;;;10.89;90.19
45523;BME280;31254;51.680;5.394;2023-02-23T11:58:51;101639.44;;;10.82;90.04
45523;BME280;31254;51.680;5.394;2023-02-23T12:04:07;101629.28;;;10.73;90.08
45523;BME280;31254;51.680;5.394;2023-02-23T12:06:37;101623.50;;;10.87;89.75
45523;BME280;31254;51.680;5.394;2023-02-23T12:09:27;101620.50;;;10.90;89.38
45523;BME280;31254;51.680;5.394;2023-02-23T12:14:36;101575.09;;;10.68;89.24
45523;BME280;31254;51.680;5.394;2023-02-23T12:17:17;101611.38;;;10.80;88.86
45523;BME280;31254;51.680;5.394;2023-02-23T12:20:00;101613.13;;;10.81;89.18
45523;BME280;31254;51.680;5.394;2023-02-23T12:22:38;101605.31;;;10.97;88.59
45523;BME280;31254;51.680;5.394;2023-02-23T12:25:24;101607.13;;;11.08;88.51
45523;BME280;31254;51.680;5.394;2023-02-23T12:28:16;101608.34;;;11.25;87.79
45523;BME280;31254;51.680;5.394;2023-02-23T12:33:27;101610.09;;;11.26;87.19
45523;BME280;31254;51.680;5.394;2023-02-23T12:36:22;101615.16;;;11.31;86.98
45523;BME280;31254;51.680;5.394;2023-02-23T12:38:56;101618.53;;;11.23;86.81
45523;BME280;31254;51.680;5.394;2023-02-23T12:41:40;101618.63;;;11.12;87.58
45523;BME280;31254;51.680;5.394;2023-02-23T12:52:36;101612.31;;;10.48;87.96
45523;BME280;31254;51.680;5.394;2023-02-23T12:55:11;101602.28;;;10.37;87.29
45523;BME280;31254;51.680;5.394;2023-02-23T13:00:37;101623.72;;;10.42;87.50
45523;BME280;31254;51.680;5.394;2023-02-23T13:06:10;101614.31;;;10.35;87.25
45523;BME280;31254;51.680;5.394;2023-02-23T13:19:55;101612.09;;;10.29;86.81
45523;BME280;31254;51.680;5.394;2023-02-23T13:22:50;101617.47;;;10.19;86.27
45523;BME280;31254;51.680;5.394;2023-02-23T13:27:58;101615.84;;;10.16;86.58
45523;BME280;31254;51.680;5.394;2023-02-23T13:30:28;101622.28;;;10.15;87.16
45523;BME280;31254;51.680;5.394;2023-02-23T13:33:04;101604.13;;;10.04;86.50
45523;BME280;31254;51.680;5.394;2023-02-23T13:35:40;101607.94;;;10.02;86.48
45523;BME280;31254;51.680;5.394;2023-02-23T13:46:56;101628.00;;;10.01;87.27
45523;BME280;31254;51.680;5.394;2023-02-23T13:51:58;101615.91;;;9.94;87.31
45523;BME280;31254;51.680;5.394;2023-02-23T13:54:33;101626.44;;;9.98;87.69
45523;BME280;31254;51.680;5.394;2023-02-23T13:57:02;101629.53;;;9.94;87.64
45523;BME280;31254;51.680;5.394;2023-02-23T13:59:39;101616.91;;;9.81;87.74
45523;BME280;31254;51.680;5.394;2023-02-23T14:04:52;101609.25;;;9.86;87.54
45523;BME280;31254;51.680;5.394;2023-02-23T14:07:28;101629.41;;;9.95;87.81
45523;BME280;31254;51.680;5.394;2023-02-23T14:10:00;101629.41;;;9.95;87.28
45523;BME280;31254;51.680;5.394;2023-02-23T14:15:28;101632.22;;;10.05;87.24
45523;BME280;31254;51.680;5.394;2023-02-23T14:21:04;101610.56;;;9.92;86.82
45523;BME280;31254;51.680;5.394;2023-02-23T14:29:26;101635.06;;;10.15;86.70
45523;BME280;31254;51.680;5.394;2023-02-23T14:32:16;101637.56;;;10.06;86.09
45523;BME280;31254;51.680;5.394;2023-02-23T14:40:21;101646.75;;;9.94;86.51
45523;BME280;31254;51.680;5.394;2023-02-23T14:42:52;101646.38;;;9.87;86.47
45523;BME280;31254;51.680;5.394;2023-02-23T14:45:24;101643.41;;;9.91;86.32
45523;BME280;31254;51.680;5.394;2023-02-23T14:47:55;101636.75;;;9.83;86.30
45523;BME280;31254;51.680;5.394;2023-02-23T14:50:30;101644.38;;;9.89;86.18
45523;BME280;31254;51.680;5.394;2023-02-23T14:52:58;101649.84;;;9.89;85.86
45523;BME280;31254;51.680;5.394;2023-02-23T14:55:31;101643.53;;;9.89;85.84
45523;BME280;31254;51.680;5.394;2023-02-23T14:58:17;101635.97;;;9.93;85.55
45523;BME280;31254;51.680;5.394;2023-02-23T15:00:46;101631.66;;;9.90;86.10
45523;BME280;31254;51.680;5.394;2023-02-23T15:03:16;101647.13;;;9.89;86.08
45523;BME280;31254;51.680;5.394;2023-02-23T15:05:54;101643.66;;;9.87;86.11
45523;BME280;31254;51.680;5.394;2023-02-23T15:08:24;101628.94;;;9.67;86.22
45523;BME280;31254;51.680;5.394;2023-02-23T15:13:28;101626.34;;;9.66;86.18
45523;BME280;31254;51.680;5.394;2023-02-23T15:15:56;101625.50;;;9.65;86.58
45523;BME280;31254;51.680;5.394;2023-02-23T15:18:32;101626.72;;;9.73;86.39
45523;BME280;31254;51.680;5.394;2023-02-23T15:21:22;101627.06;;;9.79;85.23
45523;BME280;31254;51.680;5.394;2023-02-23T15:23:58;101628.22;;;9.77;85.33
45523;BME280;31254;51.680;5.394;2023-02-23T15:26:32;101535.13;;;9.26;84.89
45523;BME280;31254;51.680;5.394;2023-02-23T15:29:24;101641.44;;;9.81;85.62
45523;BME280;31254;51.680;5.394;2023-02-23T15:31:53;101638.06;;;10.00;83.97
45523;BME280;31254;51.680;5.394;2023-02-23T15:34:24;101578.31;;;9.54;85.18
45523;BME280;31254;51.680;5.394;2023-02-23T15:39:21;101636.47;;;9.98;84.89
45523;BME280;31254;51.680;5.394;2023-02-23T15:41:55;101634.00;;;9.95;85.32
45523;BME280;31254;51.680;5.394;2023-02-23T15:44:23;101631.75;;;10.00;84.44